KVRB/VRB METAR and TAF weather

Enter ICAO airport designator
Station Type Date Time Source
KVRB METAR 2022/12/04 03:53 UTC NOAA

KVRB 040353Z AUTO 00000KT CLR 17/17 A3026 RMK AO2 SLP244 T01670167 $


Station Type Date Time Source
KVRB Decoded METAR 2022/12/04 03:53 UTC NOAA

VERO BEACH MUNICIPAL AIRPORT , FL, United States (KVRB) 27-39N 080-25W 10M
Dec 03, 2022 - 10:53 PM EST / 2022.12.04 0353 UTC
Wind: Calm:0
Sky conditions: clear
Temperature: 62.1 F (16.7 C)
Dew Point: 62.1 F (16.7 C)
Relative Humidity: 100%
Pressure (altimeter): 30.26 in. Hg (1024 hPa)
ob: KVRB 040353Z AUTO 00000KT CLR 17/17 A3026 RMK AO2 SLP244 T01670167
cycle: 4

Station Type Date Time Source
KVRB TAF 2022/12/03 18:42 UTC NOAA

TAF KVRB 031740Z 0318/0418 10011KT P6SM SCT050
FM032300 08005KT P6SM SCT045
FM041500 04008KT P6SM FEW050 SCT250
AMD LTD TO CLD WIND AND WX

Example: see airport list